Time;durP1;ratioP1;P1;durP2;ratioP2;P2;SDS_P1;SDS_P2;PMS_P1;PMS_P2;Temp;Humidity;BMP_temperature;BMP_pressure;BME280_temperature;BME280_humidity;BME280_pressure;Samples;Min_cycle;Max_cycle;Signal;HPM_P1;HPM_P2
2021/07/14 00:02:05;;;;;;;4.13;1.95;;;13.70;84.10;;;;;;5048303;28;20049;-74
2021/07/14 00:04:32;;;;;;;4.68;1.98;;;13.80;84.00;;;;;;5048449;28;20026;-74
2021/07/14 00:06:58;;;;;;;3.78;1.67;;;13.80;83.80;;;;;;5047765;28;20056;-74
2021/07/14 00:09:23;;;;;;;3.47;1.73;;;13.70;84.00;;;;;;5048009;28;20067;-74
2021/07/14 00:11:55;;;;;;;2.60;1.63;;;13.60;84.60;;;;;;5048492;28;20030;-74
2021/07/14 00:22:18;;;;;;;3.90;1.88;;;13.50;85.30;;;;;;5032996;28;20041;-75
2021/07/14 00:24:44;;;;;;;3.45;2.15;;;13.40;85.20;;;;;;5032890;28;20025;-74
2021/07/14 00:27:12;;;;;;;2.38;2.13;;;13.40;85.40;;;;;;5048228;28;20394;-74
2021/07/14 00:29:48;;;;;;;3.10;1.70;;;13.40;85.50;;;;;;5032869;28;20018;-74
2021/07/14 00:32:13;;;;;;;3.17;1.90;;;13.30;85.60;;;;;;5048197;28;20033;-74
2021/07/14 00:34:39;;;;;;;4.13;1.80;;;13.20;85.70;;;;;;5032939;28;20359;-74
2021/07/14 00:37:04;;;;;;;2.35;1.80;;;13.20;85.90;;;;;;5048215;28;20477;-74
2021/07/14 00:39:30;;;;;;;6.50;2.30;;;13.20;85.80;;;;;;5050862;28;20485;-74
2021/07/14 00:41:55;;;;;;;5.50;2.42;;;13.20;86.00;;;;;;5036684;28;20398;-74
2021/07/14 00:44:21;;;;;;;3.35;1.65;;;13.30;86.10;;;;;;5036625;28;20390;-74
2021/07/14 00:46:48;;;;;;;2.53;1.90;;;13.30;85.50;;;;;;5036872;28;20021;-74
2021/07/14 00:49:14;;;;;;;3.25;1.58;;;13.30;85.30;;;;;;5052168;28;20029;-74
2021/07/14 00:51:40;;;;;;;4.13;2.20;;;13.20;85.40;;;;;;5052124;28;20389;-74
2021/07/14 00:54:05;;;;;;;7.70;1.63;;;13.20;85.40;;;;;;5051862;28;20025;-74
2021/07/14 00:56:31;;;;;;;3.03;1.85;;;13.20;85.40;;;;;;5053262;28;20029;-74
2021/07/14 00:58:58;;;;;;;3.95;1.90;;;13.10;85.60;;;;;;5053805;28;20026;-74
2021/07/14 01:01:27;;;;;;;5.90;2.22;;;13.10;85.80;;;;;;5051570;28;20502;-74
2021/07/14 01:04:19;;;;;;;2.60;1.70;;;13.00;85.80;;;;;;5051947;28;20475;-73
2021/07/14 01:07:06;;;;;;;2.58;1.70;;;12.90;86.30;;;;;;5051658;28;20026;-73
2021/07/14 01:09:55;;;;;;;4.03;1.52;;;12.90;86.50;;;;;;5051442;28;20032;-73
2021/07/14 01:12:34;;;;;;;4.00;1.90;;;12.90;86.50;;;;;;5051441;28;20509;-73
2021/07/14 01:15:19;;;;;;;3.50;1.90;;;12.90;86.80;;;;;;5051781;28;20029;-74
2021/07/14 01:18:01;;;;;;;3.88;2.17;;;12.90;86.50;;;;;;5051629;28;20078;-73
2021/07/14 01:20:29;;;;;;;6.05;2.08;;;12.90;86.30;;;;;;5051759;28;20033;-73
2021/07/14 01:23:16;;;;;;;4.03;2.30;;;12.90;86.30;;;;;;5051816;28;20132;-74
2021/07/14 01:25:47;;;;;;;2.63;1.63;;;12.70;86.80;;;;;;5051895;28;20088;-73
2021/07/14 01:28:14;;;;;;;3.88;2.17;;;12.70;86.90;;;;;;5051915;28;20059;-74
2021/07/14 01:30:41;;;;;;;4.22;1.98;;;12.70;87.40;;;;;;5052927;28;20390;-73
2021/07/14 01:33:09;;;;;;;3.58;1.63;;;12.60;87.50;;;;;;5051583;28;20021;-73
2021/07/14 01:35:39;;;;;;;3.15;2.10;;;12.70;87.40;;;;;;5055445;28;20033;-73
2021/07/14 01:38:05;;;;;;;7.13;2.28;;;12.80;87.20;;;;;;5036928;28;20037;-74
2021/07/14 01:40:32;;;;;;;3.13;2.10;;;12.80;87.10;;;;;;5057564;28;20021;-74
2021/07/14 01:43:01;;;;;;;2.63;2.22;;;12.90;86.60;;;;;;5056574;28;20022;-74
2021/07/14 01:45:33;;;;;;;3.40;2.45;;;12.90;86.30;;;;;;5053232;28;20485;-74
2021/07/14 01:48:03;;;;;;;2.10;1.90;;;12.80;86.40;;;;;;5052797;28;20060;-73
2021/07/14 01:50:31;;;;;;;2.65;2.10;;;12.80;86.70;;;;;;5053834;28;20037;-73
2021/07/14 01:52:57;;;;;;;2.28;2.05;;;12.70;86.90;;;;;;5052760;28;20041;-73
2021/07/14 01:55:24;;;;;;;3.88;2.38;;;12.70;86.90;;;;;;5036652;28;20084;-73
2021/07/14 01:57:52;;;;;;;3.25;1.83;;;12.70;87.00;;;;;;5051528;28;20036;-73
2021/07/14 02:00:19;;;;;;;3.00;2.15;;;12.80;86.90;;;;;;5037637;28;20029;-74
2021/07/14 02:03:05;;;;;;;4.75;2.13;;;12.80;86.90;;;;;;5038213;28;20040;-73
2021/07/14 02:05:36;;;;;;;3.17;2.38;;;12.80;86.60;;;;;;5038050;28;20025;-73
2021/07/14 02:08:02;;;;;;;6.40;2.45;;;12.80;86.60;;;;;;5037882;28;20025;-73
2021/07/14 02:10:29;;;;;;;3.22;2.50;;;12.70;86.70;;;;;;5037659;28;20017;-73
2021/07/14 02:12:56;;;;;;;3.95;2.33;;;12.70;87.20;;;;;;5037916;28;20037;-73
2021/07/14 02:15:25;;;;;;;5.10;2.90;;;12.70;87.20;;;;;;5037428;28;20049;-73
2021/07/14 02:17:56;;;;;;;4.25;2.60;;;12.70;87.30;;;;;;5037910;28;20128;-73
2021/07/14 02:20:23;;;;;;;6.65;2.70;;;12.60;87.30;;;;;;5037815;28;20021;-73
2021/07/14 02:22:50;;;;;;;4.72;2.65;;;12.60;87.40;;;;;;5055726;28;20021;-73
2021/07/14 02:25:16;;;;;;;4.28;2.45;;;12.60;87.60;;;;;;5037839;28;20119;-74
2021/07/14 02:27:42;;;;;;;4.97;2.72;;;12.70;87.50;;;;;;5037027;28;20029;-73
2021/07/14 02:30:16;;;;;;;4.18;2.22;;;12.80;87.40;;;;;;5037250;28;20021;-73
2021/07/14 02:32:43;;;;;;;3.90;2.70;;;12.70;87.20;;;;;;5037226;28;20036;-73
2021/07/14 02:35:09;;;;;;;4.45;2.35;;;12.70;87.10;;;;;;5037776;28;20071;-73
2021/07/14 02:37:54;;;;;;;3.78;2.28;;;12.70;87.30;;;;;;5036785;28;20071;-73
2021/07/14 02:40:59;;;;;;;6.85;2.25;;;12.70;87.30;;;;;;5037401;28;20028;-73
2021/07/14 02:43:27;;;;;;;3.38;2.17;;;12.80;87.20;;;;;;5002758;28;20425;-74
2021/07/14 02:45:56;;;;;;;2.65;2.10;;;12.90;87.10;;;;;;5037370;28;20025;-74
2021/07/14 02:48:25;;;;;;;5.40;2.70;;;12.90;87.00;;;;;;5036967;28;20071;-73
2021/07/14 02:50:53;;;;;;;2.88;2.22;;;13.00;86.70;;;;;;5037170;28;20020;-73
2021/07/14 02:53:22;;;;;;;2.97;2.10;;;13.00;86.50;;;;;;5036771;28;20128;-73
2021/07/14 02:55:54;;;;;;;3.15;2.38;;;13.00;86.50;;;;;;5036976;28;20439;-74
2021/07/14 02:58:28;;;;;;;3.30;1.90;;;13.10;86.70;;;;;;5036403;28;20082;-74
2021/07/14 03:00:55;;;;;;;3.92;2.20;;;13.10;86.60;;;;;;5036030;28;20082;-74
2021/07/14 03:03:22;;;;;;;5.55;2.50;;;13.10;86.40;;;;;;5036258;28;20032;-74
2021/07/14 03:05:52;;;;;;;3.50;2.35;;;13.10;86.50;;;;;;5036302;28;20057;-73
2021/07/14 03:08:18;;;;;;;2.72;1.98;;;13.10;86.70;;;;;;5036288;28;20021;-74
2021/07/14 03:10:44;;;;;;;4.35;2.33;;;13.10;86.90;;;;;;5036223;28;20029;-74
2021/07/14 03:13:10;;;;;;;3.35;2.33;;;13.10;86.80;;;;;;5054160;28;20021;-73
2021/07/14 03:15:39;;;;;;;2.72;2.30;;;13.10;86.90;;;;;;5035965;28;20025;-73
2021/07/14 03:18:07;;;;;;;4.28;2.13;;;13.10;86.90;;;;;;5036136;28;20044;-73
2021/07/14 03:20:34;;;;;;;4.57;2.08;;;13.20;86.70;;;;;;5053888;28;20033;-74
2021/07/14 03:23:02;;;;;;;6.22;2.47;;;13.20;86.70;;;;;;5036077;28;20052;-74
2021/07/14 03:25:28;;;;;;;2.53;2.13;;;13.20;86.70;;;;;;5036061;28;20024;-74
2021/07/14 03:27:55;;;;;;;2.40;2.20;;;13.30;86.70;;;;;;5035742;28;20059;-74
2021/07/14 03:30:22;;;;;;;2.65;2.20;;;13.40;86.60;;;;;;5035915;28;20049;-73
2021/07/14 03:32:48;;;;;;;4.43;2.30;;;13.30;86.50;;;;;;5036052;28;20362;-73
2021/07/14 03:35:15;;;;;;;4.05;2.30;;;13.40;86.50;;;;;;5035695;28;20075;-74
2021/07/14 03:37:42;;;;;;;2.80;2.20;;;13.40;86.60;;;;;;5035649;28;20077;-74
2021/07/14 03:40:09;;;;;;;3.60;2.08;;;13.30;86.40;;;;;;5035778;28;20035;-73
2021/07/14 03:42:37;;;;;;;4.38;2.20;;;13.40;86.40;;;;;;5035677;28;20100;-74
2021/07/14 03:45:03;;;;;;;3.25;2.33;;;13.30;86.50;;;;;;5035559;28;20078;-74
2021/07/14 03:47:29;;;;;;;3.42;2.63;;;13.30;86.60;;;;;;5035565;28;20029;-74
2021/07/14 03:49:56;;;;;;;3.25;2.72;;;13.40;86.70;;;;;;5035615;28;20022;-74
2021/07/14 03:52:23;;;;;;;5.07;2.50;;;13.40;86.90;;;;;;5035392;28;20025;-74
2021/07/14 03:54:50;;;;;;;4.70;2.28;;;13.50;86.90;;;;;;5035138;28;20163;-74
2021/07/14 03:57:16;;;;;;;2.70;2.20;;;13.50;87.00;;;;;;5034928;28;20041;-74
2021/07/14 03:59:42;;;;;;;4.82;2.50;;;13.60;87.30;;;;;;5035292;28;20065;-73
2021/07/14 04:02:11;;;;;;;3.10;2.35;;;13.60;86.30;;;;;;5035402;28;20550;-74
2021/07/14 04:04:37;;;;;;;4.43;2.75;;;13.70;86.10;;;;;;5035164;28;20059;-73
2021/07/14 04:07:09;;;;;;;9.77;2.70;;;13.70;85.50;;;;;;5035503;28;20419;-73
2021/07/14 04:09:35;;;;;;;3.75;2.30;;;13.70;85.40;;;;;;5035247;28;20477;-73
2021/07/14 04:12:02;;;;;;;3.10;2.47;;;13.70;85.20;;;;;;5035292;28;20033;-74
2021/07/14 04:14:29;;;;;;;5.82;2.45;;;13.70;84.90;;;;;;5035073;28;20021;-74
2021/07/14 04:16:56;;;;;;;4.85;2.75;;;13.70;84.90;;;;;;5035084;28;20041;-74
2021/07/14 04:19:22;;;;;;;6.57;2.67;;;13.70;84.70;;;;;;5035057;28;20031;-74
2021/07/14 04:21:47;;;;;;;4.38;2.83;;;13.70;84.70;;;;;;5051738;28;20021;-73
2021/07/14 04:24:13;;;;;;;5.13;2.13;;;13.70;84.50;;;;;;5034882;28;20056;-73
2021/07/14 04:26:39;;;;;;;4.50;2.63;;;13.70;84.40;;;;;;5034642;28;20088;-74
2021/07/14 04:29:05;;;;;;;7.32;2.70;;;13.70;84.60;;;;;;5034907;28;20025;-73
2021/07/14 04:31:35;;;;;;;3.42;2.30;;;13.70;84.70;;;;;;5034758;28;20033;-76
2021/07/14 04:34:02;;;;;;;5.60;2.30;;;13.80;84.50;;;;;;5034685;28;20487;-73
2021/07/14 04:36:28;;;;;;;4.30;2.30;;;13.70;84.60;;;;;;5034698;28;20021;-73
2021/07/14 04:38:54;;;;;;;4.95;2.55;;;13.80;84.60;;;;;;5034937;28;20036;-73
2021/07/14 04:41:20;;;;;;;5.93;2.47;;;13.80;84.50;;;;;;5034607;28;20036;-73
2021/07/14 04:43:45;;;;;;;3.58;2.50;;;13.90;84.50;;;;;;5017967;28;20070;-73
2021/07/14 04:46:11;;;;;;;5.35;2.95;;;13.90;84.50;;;;;;5034877;28;20021;-73
2021/07/14 04:48:37;;;;;;;4.70;2.67;;;13.90;84.50;;;;;;5034425;28;20113;-73
2021/07/14 04:51:02;;;;;;;3.55;2.70;;;13.80;84.50;;;;;;5034545;28;20025;-75
2021/07/14 04:53:28;;;;;;;5.00;2.75;;;13.90;84.40;;;;;;5034475;28;20031;-75
2021/07/14 04:55:53;;;;;;;5.47;2.70;;;13.80;84.30;;;;;;5034275;28;20079;-75
2021/07/14 04:58:19;;;;;;;4.35;2.60;;;13.90;84.50;;;;;;5033997;28;20033;-75
2021/07/14 05:00:46;;;;;;;4.15;2.63;;;13.90;84.40;;;;;;5052077;28;20049;-75
2021/07/14 05:03:12;;;;;;;4.20;2.33;;;14.00;84.20;;;;;;5034249;28;20021;-75
2021/07/14 05:05:37;;;;;;;4.82;2.42;;;14.00;83.80;;;;;;5051720;28;20103;-75
2021/07/14 05:08:03;;;;;;;2.63;2.33;;;14.10;83.90;;;;;;5034368;28;20108;-75
2021/07/14 05:10:30;;;;;;;3.80;2.55;;;14.10;83.80;;;;;;5052085;28;20500;-75
2021/07/14 05:12:56;;;;;;;6.40;2.90;;;14.10;84.20;;;;;;5033955;28;20140;-75
2021/07/14 05:15:22;;;;;;;5.70;2.78;;;14.10;84.30;;;;;;5052177;28;20025;-75
2021/07/14 05:17:47;;;;;;;3.65;2.90;;;14.10;84.40;;;;;;5050699;28;20167;-75
2021/07/14 05:20:13;;;;;;;3.83;2.88;;;14.20;84.40;;;;;;5017613;28;20079;-75
2021/07/14 05:22:39;;;;;;;3.05;2.15;;;14.10;84.40;;;;;;5034662;28;20032;-75
2021/07/14 05:25:07;;;;;;;3.13;2.30;;;14.20;84.40;;;;;;5039199;28;20380;-75
2021/07/14 05:27:33;;;;;;;6.88;3.00;;;14.20;84.50;;;;;;5040063;28;20029;-75
2021/07/14 05:29:59;;;;;;;7.13;3.08;;;14.30;84.70;;;;;;5037936;28;20021;-75
2021/07/14 05:32:25;;;;;;;4.22;2.95;;;14.30;84.50;;;;;;5037661;28;20075;-74
2021/07/14 05:34:50;;;;;;;8.35;2.72;;;14.40;84.40;;;;;;5038091;28;20071;-75
2021/07/14 05:37:16;;;;;;;3.15;2.50;;;14.40;83.90;;;;;;5037656;28;20029;-75
2021/07/14 05:39:42;;;;;;;4.18;2.65;;;14.50;83.90;;;;;;5026261;28;20366;-75
2021/07/14 05:42:08;;;;;;;4.20;2.92;;;14.50;83.70;;;;;;5048100;28;20477;-75
2021/07/14 05:44:33;;;;;;;5.70;2.47;;;14.50;83.00;;;;;;5037825;28;20029;-75
2021/07/14 05:46:59;;;;;;;4.75;3.15;;;14.50;83.10;;;;;;5037287;28;20056;-75
2021/07/14 05:49:24;;;;;;;7.40;3.05;;;14.50;83.20;;;;;;5037369;28;20359;-75
2021/07/14 05:51:51;;;;;;;3.90;2.60;;;14.60;83.90;;;;;;5055353;28;20029;-75
2021/07/14 05:54:17;;;;;;;5.78;3.00;;;14.60;83.20;;;;;;5055234;28;20025;-76
2021/07/14 05:56:43;;;;;;;3.70;2.97;;;14.70;83.90;;;;;;5037017;28;20029;-75
2021/07/14 05:59:08;;;;;;;5.25;3.60;;;14.80;83.60;;;;;;5037533;28;20035;-74
2021/07/14 06:01:34;;;;;;;6.80;3.17;;;14.80;82.30;;;;;;5036834;28;20487;-75
2021/07/14 06:04:00;;;;;;;7.07;3.38;;;14.80;82.30;;;;;;5036877;28;20029;-74
2021/07/14 06:06:26;;;;;;;8.25;3.20;;;14.80;82.10;;;;;;5054730;28;20021;-75
2021/07/14 06:08:51;;;;;;;10.32;3.83;;;14.90;82.10;;;;;;5054668;28;20025;-74
2021/07/14 06:11:17;;;;;;;4.97;3.47;;;14.90;81.90;;;;;;5037115;28;20025;-75
2021/07/14 06:13:43;;;;;;;5.15;3.55;;;15.00;82.00;;;;;;5036553;28;20029;-74
2021/07/14 06:16:11;;;;;;;3.92;2.90;;;15.10;82.10;;;;;;5036349;28;20021;-75
2021/07/14 06:18:37;;;;;;;3.97;2.83;;;15.30;81.70;;;;;;5036425;28;20036;-75
2021/07/14 06:21:04;;;;;;;3.75;2.78;;;15.40;81.20;;;;;;5054990;28;20543;-75
2021/07/14 06:23:30;;;;;;;3.97;3.03;;;15.60;81.00;;;;;;5036929;28;20663;-75
2021/07/14 06:25:56;;;;;;;3.10;2.60;;;15.80;80.80;;;;;;5036498;28;20466;-75
2021/07/14 06:28:22;;;;;;;3.50;2.33;;;15.90;80.70;;;;;;5036310;28;20025;-75
2021/07/14 06:30:48;;;;;;;5.50;2.08;;;16.00;80.40;;;;;;5036652;28;20103;-74
2021/07/14 06:33:15;;;;;;;6.40;2.65;;;16.00;79.90;;;;;;5037007;28;20033;-74
2021/07/14 06:35:41;;;;;;;6.05;2.25;;;16.20;83.30;;;;;;5035921;28;20025;-75
2021/07/14 06:38:07;;;;;;;8.23;2.60;;;16.40;78.60;;;;;;5036245;28;20033;-73
2021/07/14 06:40:37;;;;;;;3.53;2.22;;;16.50;81.40;;;;;;5036550;28;20148;-74
2021/07/14 06:43:05;;;;;;;4.22;2.08;;;16.70;78.60;;;;;;5036555;28;20025;-74
2021/07/14 06:45:31;;;;;;;4.35;2.50;;;16.70;75.20;;;;;;5036539;28;20124;-74
2021/07/14 06:47:56;;;;;;;4.57;2.20;;;16.70;74.00;;;;;;5036033;28;20438;-74
2021/07/14 06:50:22;;;;;;;6.53;2.42;;;16.70;74.00;;;;;;5036419;28;20055;-74
2021/07/14 06:52:48;;;;;;;4.15;2.20;;;16.80;73.70;;;;;;5036477;28;20069;-74
2021/07/14 06:55:13;;;;;;;2.28;2.00;;;16.90;73.30;;;;;;5036227;28;20028;-73
2021/07/14 06:57:40;;;;;;;3.95;2.10;;;16.90;73.20;;;;;;5035734;28;20037;-74
2021/07/14 07:00:09;;;;;;;5.45;2.40;;;17.00;72.90;;;;;;5036207;28;20127;-73
2021/07/14 07:02:36;;;;;;;3.30;2.28;;;17.10;72.60;;;;;;5035573;28;20049;-73
2021/07/14 07:05:03;;;;;;;5.82;1.90;;;17.20;72.30;;;;;;5054009;28;20428;-74
2021/07/14 07:07:29;;;;;;;3.50;2.17;;;17.30;71.40;;;;;;5035450;28;20082;-74
2021/07/14 07:09:54;;;;;;;5.68;1.83;;;17.30;72.10;;;;;;5035866;28;20029;-74
2021/07/14 07:12:20;;;;;;;2.45;1.65;;;17.40;70.90;;;;;;5035961;28;20413;-73
2021/07/14 07:14:46;;;;;;;2.88;1.92;;;17.50;70.40;;;;;;5036169;28;20079;-74
2021/07/14 07:17:12;;;;;;;3.20;1.98;;;17.60;70.20;;;;;;5035469;28;20124;-74
2021/07/14 07:19:39;;;;;;;4.80;2.17;;;17.70;70.30;;;;;;5035793;28;20017;-73
2021/07/14 07:22:05;;;;;;;2.03;1.80;;;17.80;69.50;;;;;;5035609;28;20052;-75
2021/07/14 07:24:31;;;;;;;8.32;2.28;;;17.80;69.30;;;;;;5052321;28;20104;-74
2021/07/14 07:26:58;;;;;;;3.80;2.17;;;18.00;69.10;;;;;;5035721;28;20021;-74
2021/07/14 07:29:24;;;;;;;1.90;1.67;;;18.00;68.90;;;;;;5053622;28;20070;-74
2021/07/14 07:31:50;;;;;;;6.85;1.90;;;18.00;69.00;;;;;;5035365;28;20026;-74
2021/07/14 07:34:16;;;;;;;5.45;1.80;;;18.00;68.30;;;;;;5035472;28;20028;-74
2021/07/14 07:36:43;;;;;;;8.93;2.00;;;18.20;67.40;;;;;;5035526;28;20028;-73
2021/07/14 07:39:09;;;;;;;2.58;1.77;;;18.30;67.50;;;;;;5035696;28;20121;-74
2021/07/14 07:41:34;;;;;;;4.63;1.85;;;18.40;66.90;;;;;;5035053;28;20064;-73
2021/07/14 07:44:01;;;;;;;3.47;2.10;;;18.30;67.00;;;;;;5035487;28;20025;-74
2021/07/14 07:46:26;;;;;;;8.48;2.65;;;18.30;66.80;;;;;;5051574;28;20108;-73
2021/07/14 07:48:52;;;;;;;5.00;2.28;;;18.20;66.90;;;;;;5034825;28;20053;-75
2021/07/14 07:51:18;;;;;;;2.78;1.73;;;18.10;67.70;;;;;;5034903;28;20067;-74
2021/07/14 07:53:44;;;;;;;5.28;1.98;;;18.10;67.40;;;;;;5034988;28;20091;-74
2021/07/14 07:56:10;;;;;;;3.20;1.75;;;18.30;66.80;;;;;;5035174;28;20501;-73
2021/07/14 07:58:36;;;;;;;2.33;1.50;;;18.10;67.20;;;;;;5035016;28;20041;-74
2021/07/14 08:01:03;;;;;;;1.80;1.42;;;18.00;66.30;;;;;;5033708;28;20046;-74
2021/07/14 08:03:28;;;;;;;3.50;1.92;;;18.00;65.70;;;;;;5058820;28;20029;-75
2021/07/14 08:05:54;;;;;;;4.22;1.45;;;18.00;67.40;;;;;;5049803;28;20486;-74
2021/07/14 08:08:20;;;;;;;3.05;1.60;;;18.00;66.20;;;;;;5048073;28;20032;-73
2021/07/14 08:10:46;;;;;;;4.95;1.50;;;18.00;67.30;;;;;;5048255;28;20539;-74
2021/07/14 08:13:12;;;;;;;2.25;1.38;;;18.10;66.20;;;;;;5047843;28;20021;-74
2021/07/14 08:15:37;;;;;;;2.15;1.60;;;18.20;65.80;;;;;;5031558;28;20158;-73
2021/07/14 08:18:04;;;;;;;2.42;1.30;;;18.10;66.50;;;;;;5047727;28;20037;-74
2021/07/14 08:20:30;;;;;;;1.70;1.40;;;18.00;66.10;;;;;;5032092;28;20028;-73
2021/07/14 08:22:56;;;;;;;5.78;1.95;;;17.90;67.00;;;;;;5048015;28;20358;-73
2021/07/14 08:25:22;;;;;;;4.07;1.65;;;17.80;67.00;;;;;;5047600;28;20057;-74
2021/07/14 08:27:48;;;;;;;5.20;1.85;;;17.80;68.20;;;;;;5047974;28;20032;-74
2021/07/14 08:30:15;;;;;;;3.00;1.58;;;17.80;68.00;;;;;;5047212;28;20029;-73
2021/07/14 08:32:41;;;;;;;3.65;1.52;;;17.90;67.80;;;;;;5046986;28;20030;-73
2021/07/14 08:35:08;;;;;;;2.25;1.60;;;17.80;68.20;;;;;;5047301;28;20021;-74
2021/07/14 08:37:34;;;;;;;1.90;1.77;;;17.90;67.20;;;;;;5046828;28;20030;-74
2021/07/14 08:40:00;;;;;;;4.38;1.67;;;17.80;67.20;;;;;;5047629;28;20026;-74
2021/07/14 08:42:26;;;;;;;7.10;2.08;;;17.70;68.30;;;;;;5047250;28;20072;-74
2021/07/14 08:44:55;;;;;;;3.15;1.67;;;17.70;68.30;;;;;;5047890;28;20059;-73
2021/07/14 08:47:21;;;;;;;3.88;2.00;;;17.60;68.70;;;;;;5047587;28;20117;-74
2021/07/14 08:49:49;;;;;;;2.95;1.63;;;17.60;69.90;;;;;;5031174;28;20083;-74
2021/07/14 08:52:18;;;;;;;2.63;1.50;;;17.60;69.00;;;;;;5031259;28;20025;-74
2021/07/14 08:54:44;;;;;;;3.20;1.65;;;17.60;68.50;;;;;;5048048;28;20041;-74
2021/07/14 08:57:12;;;;;;;4.35;1.60;;;17.70;68.70;;;;;;5047838;28;20068;-74
2021/07/14 08:59:38;;;;;;;2.42;1.52;;;17.70;68.80;;;;;;5048939;28;20102;-74
2021/07/14 09:02:05;;;;;;;3.50;1.90;;;17.80;68.60;;;;;;5051669;28;20136;-73
2021/07/14 09:04:30;;;;;;;2.90;1.55;;;17.80;67.60;;;;;;5051326;28;20021;-74
2021/07/14 09:06:56;;;;;;;2.15;1.40;;;17.90;67.30;;;;;;5051210;28;20378;-73
2021/07/14 09:09:23;;;;;;;2.80;1.70;;;18.10;68.00;;;;;;5051655;28;20022;-74
2021/07/14 09:11:58;;;;;;;3.25;1.25;;;18.10;67.40;;;;;;5036317;28;20113;-73
2021/07/14 09:14:26;;;;;;;3.95;1.23;;;18.20;67.60;;;;;;5051583;28;20029;-76
2021/07/14 09:16:52;;;;;;;3.08;1.33;;;18.50;66.60;;;;;;5051488;28;20374;-74
2021/07/14 09:19:27;;;;;;;1.98;1.30;;;18.60;66.40;;;;;;5035976;28;20564;-75
2021/07/14 09:21:53;;;;;;;5.30;1.58;;;18.60;66.20;;;;;;5051192;28;20497;-75
2021/07/14 09:24:34;;;;;;;4.00;1.33;;;18.80;65.10;;;;;;5051166;28;20030;-76
2021/07/14 09:27:14;;;;;;;4.30;1.30;;;19.00;65.40;;;;;;5051321;28;20208;-74
2021/07/14 09:29:40;;;;;;;1.25;1.15;;;18.90;64.60;;;;;;5050834;28;20503;-75
2021/07/14 09:32:08;;;;;;;3.22;1.38;;;18.90;65.40;;;;;;5035951;28;20112;-75
2021/07/14 09:34:34;;;;;;;4.75;1.50;;;18.80;65.60;;;;;;5051021;28;20025;-74
2021/07/14 09:37:02;;;;;;;1.77;1.60;;;18.90;65.60;;;;;;5051447;28;20025;-76
2021/07/14 09:39:36;;;;;;;5.95;1.70;;;19.10;65.00;;;;;;5034769;28;20025;-74
2021/07/14 09:42:10;;;;;;;2.35;1.40;;;19.00;65.60;;;;;;5034316;28;20142;-75
2021/07/14 09:44:47;;;;;;;3.85;1.48;;;19.20;64.30;;;;;;5033767;28;20096;-75
2021/07/14 09:47:22;;;;;;;2.50;1.85;;;19.10;65.50;;;;;;5035038;28;20021;-75
2021/07/14 09:49:49;;;;;;;1.70;1.60;;;19.20;64.90;;;;;;5035539;28;20025;-75
2021/07/14 09:52:18;;;;;;;1.98;1.67;;;19.20;64.80;;;;;;5050773;28;20083;-74
2021/07/14 09:54:45;;;;;;;1.67;1.33;;;19.40;63.40;;;;;;5050638;28;20025;-74
2021/07/14 09:57:18;;;;;;;2.67;1.60;;;19.50;63.80;;;;;;5050446;28;20027;-75
2021/07/14 09:59:45;;;;;;;2.17;1.15;;;19.60;63.40;;;;;;5050129;28;20041;-74
2021/07/14 10:02:13;;;;;;;3.38;1.70;;;19.80;63.40;;;;;;5050411;28;20076;-75
2021/07/14 10:04:40;;;;;;;2.03;1.63;;;19.80;63.50;;;;;;5036729;28;20029;-74
2021/07/14 10:07:14;;;;;;;5.97;1.55;;;19.80;63.70;;;;;;5036997;28;20082;-75
2021/07/14 10:09:43;;;;;;;2.67;1.40;;;19.90;62.70;;;;;;5054705;28;20447;-75
2021/07/14 10:12:29;;;;;;;1.98;1.13;;;20.00;62.30;;;;;;5036364;28;20052;-77
2021/07/14 10:15:08;;;;;;;1.50;1.40;;;19.80;61.90;;;;;;5036774;28;20063;-75
2021/07/14 10:17:39;;;;;;;3.45;1.40;;;19.50;61.70;;;;;;5036581;28;20033;-75
2021/07/14 10:20:30;;;;;;;2.65;1.35;;;19.40;62.50;;;;;;5054606;28;20497;-75
2021/07/14 10:23:03;;;;;;;3.00;1.17;;;19.30;63.30;;;;;;5036855;28;20075;-75
2021/07/14 10:25:30;;;;;;;3.92;1.23;;;19.30;62.70;;;;;;5054618;28;20013;-75
2021/07/14 10:27:57;;;;;;;3.38;1.30;;;19.50;63.10;;;;;;5036844;28;20055;-75
2021/07/14 10:30:25;;;;;;;2.58;1.30;;;19.70;62.60;;;;;;5054473;28;20040;-75
2021/07/14 10:32:51;;;;;;;1.60;1.40;;;19.90;61.20;;;;;;5054532;28;20053;-74
2021/07/14 10:35:23;;;;;;;3.33;1.50;;;19.90;60.10;;;;;;5036364;28;20017;-75
2021/07/14 10:37:55;;;;;;;3.63;1.58;;;19.70;60.40;;;;;;5036470;28;20076;-75
2021/07/14 10:40:23;;;;;;;1.42;1.13;;;19.70;61.40;;;;;;5053986;28;20381;-76
2021/07/14 10:42:50;;;;;;;3.78;1.63;;;19.80;60.90;;;;;;5054327;28;20071;-76
2021/07/14 10:45:17;;;;;;;3.72;1.70;;;19.40;64.20;;;;;;5054289;28;20021;-75
2021/07/14 10:47:48;;;;;;;5.15;1.50;;;19.30;66.20;;;;;;5053122;28;20025;-75
2021/07/14 10:50:19;;;;;;;2.22;2.03;;;19.30;66.60;;;;;;5034662;28;20025;-75
2021/07/14 10:52:46;;;;;;;2.97;2.10;;;19.20;67.20;;;;;;5035532;28;20104;-75
2021/07/14 10:55:24;;;;;;;4.72;1.77;;;19.20;67.40;;;;;;5035822;28;20074;-76
2021/07/14 10:57:51;;;;;;;5.07;1.88;;;19.30;67.90;;;;;;5035442;28;20115;-76
2021/07/14 11:00:17;;;;;;;3.20;1.70;;;19.50;65.90;;;;;;5036033;28;20017;-75
2021/07/14 11:02:47;;;;;;;3.90;1.67;;;19.50;64.90;;;;;;5035725;28;20427;-75
2021/07/14 11:05:15;;;;;;;4.10;1.40;;;19.70;65.30;;;;;;5052446;28;20025;-76
2021/07/14 11:07:46;;;;;;;1.73;1.35;;;19.90;62.80;;;;;;5052353;28;20028;-76
2021/07/14 11:10:31;;;;;;;2.70;1.35;;;20.00;61.70;;;;;;5036051;28;20017;-76
2021/07/14 11:12:58;;;;;;;2.25;1.33;;;20.00;63.20;;;;;;5054025;28;20013;-76
2021/07/14 11:15:35;;;;;;;2.58;1.42;;;20.00;62.30;;;;;;5053579;28;20025;-76
2021/07/14 11:18:28;;;;;;;1.95;1.55;;;20.00;62.50;;;;;;5053612;28;20115;-75
2021/07/14 11:20:54;;;;;;;1.55;1.20;;;20.20;61.20;;;;;;5036416;28;20497;-85
2021/07/14 11:23:22;;;;;;;4.15;1.55;;;20.50;62.50;;;;;;5036146;28;20040;-83
2021/07/14 11:25:54;;;;;;;2.13;1.45;;;20.90;63.80;;;;;;5036925;28;20028;-88
2021/07/14 11:28:21;;;;;;;6.18;1.63;;;21.30;60.10;;;;;;5054536;28;20021;-87
2021/07/14 11:30:51;;;;;;;2.38;1.45;;;21.20;57.50;;;;;;5036819;28;20029;-85
2021/07/14 11:33:32;;;;;;;4.35;1.40;;;21.40;56.00;;;;;;5036820;28;20021;-86
2021/07/14 11:36:03;;;;;;;2.70;1.38;;;21.50;56.80;;;;;;5036753;28;20025;-90
2021/07/14 11:38:39;;;;;;;1.65;1.25;;;21.40;56.40;;;;;;5053833;28;20056;-87
2021/07/14 11:41:16;;;;;;;1.88;1.42;;;21.10;57.30;;;;;;5035148;28;20021;-80
2021/07/14 11:43:42;;;;;;;2.03;1.30;;;21.20;58.20;;;;;;5035743;28;20521;-87
2021/07/14 11:46:11;;;;;;;2.15;1.60;;;20.80;57.70;;;;;;5052776;28;20517;-88
2021/07/14 11:48:39;;;;;;;4.13;1.35;;;20.60;59.30;;;;;;5052849;28;20349;-74
2021/07/14 11:51:20;;;;;;;1.52;1.23;;;20.20;61.60;;;;;;5051429;28;20485;-74
2021/07/14 11:53:50;;;;;;;2.67;1.30;;;20.00;61.60;;;;;;5034755;28;20024;-75
2021/07/14 11:56:23;;;;;;;1.38;1.25;;;19.80;61.70;;;;;;5034149;28;20366;-75
2021/07/14 11:59:03;;;;;;;7.47;1.85;;;19.90;61.50;;;;;;5034402;28;20037;-74
2021/07/14 12:01:32;;;;;;;1.30;1.10;;;19.90;61.20;;;;;;5034596;28;20385;-75
2021/07/14 12:04:05;;;;;;;4.88;1.55;;;20.00;58.90;;;;;;5034916;28;20047;-75
2021/07/14 12:06:49;;;;;;;4.63;1.92;;;19.90;59.60;;;;;;5034554;28;20021;-77
2021/07/14 12:09:16;;;;;;;1.48;1.10;;;19.80;60.50;;;;;;5052872;28;20036;-76
2021/07/14 12:11:53;;;;;;;1.65;1.00;;;19.80;60.20;;;;;;5034887;28;20025;-75
2021/07/14 12:14:32;;;;;;;2.35;1.13;;;19.70;61.00;;;;;;5055074;28;20036;-76
2021/07/14 12:17:04;;;;;;;1.75;1.00;;;19.40;62.20;;;;;;5039977;28;20033;-75
2021/07/14 12:19:31;;;;;;;1.40;1.00;;;19.50;62.80;;;;;;5038482;28;20024;-75
2021/07/14 12:22:12;;;;;;;2.95;1.15;;;19.80;63.30;;;;;;5036161;28;20086;-75
2021/07/14 12:24:51;;;;;;;1.75;0.93;;;20.20;62.20;;;;;;5034940;28;20049;-76
2021/07/14 12:27:39;;;;;;;0.98;0.73;;;20.50;61.00;;;;;;5035472;28;20496;-77
2021/07/14 12:30:12;;;;;;;3.22;1.98;;;20.80;60.30;;;;;;5035376;28;20028;-77
2021/07/14 12:32:55;;;;;;;2.95;1.00;;;20.90;59.20;;;;;;5031279;28;20075;-75
2021/07/14 12:35:33;;;;;;;3.38;1.00;;;20.90;58.30;;;;;;5051966;28;20083;-78
2021/07/14 12:38:03;;;;;;;4.90;1.17;;;20.80;59.60;;;;;;5052808;28;20525;-76
2021/07/14 12:40:32;;;;;;;1.80;1.30;;;20.80;59.60;;;;;;5034650;28;20025;-76
2021/07/14 12:43:01;;;;;;;1.95;1.15;;;21.00;59.40;;;;;;5034643;28;20266;-79
2021/07/14 12:45:29;;;;;;;0.95;0.95;;;21.10;59.20;;;;;;5034204;28;20142;-78
2021/07/14 12:47:55;;;;;;;0.70;0.70;;;21.30;56.50;;;;;;5034726;28;20446;-75
2021/07/14 12:50:23;;;;;;;3.45;1.15;;;21.30;53.90;;;;;;5034144;28;20022;-77
2021/07/14 12:52:56;;;;;;;1.67;0.80;;;21.30;55.20;;;;;;5034829;28;20032;-78
2021/07/14 12:55:23;;;;;;;0.80;0.73;;;21.40;52.20;;;;;;5035008;28;20025;-80
2021/07/14 12:57:50;;;;;;;1.27;0.80;;;21.00;52.30;;;;;;5052820;28;20116;-81
2021/07/14 13:00:23;;;;;;;0.60;0.60;;;21.00;52.30;;;;;;5065752;28;20028;-79
2021/07/14 13:03:00;;;;;;;0.75;0.60;;;20.80;52.10;;;;;;5052088;28;20025;-76
2021/07/14 13:05:28;;;;;;;1.08;0.60;;;20.90;52.00;;;;;;5052827;28;20027;-75